Time;durP1;ratioP1;P1;durP2;ratioP2;P2;SDS_P1;SDS_P2;PMS_P1;PMS_P2;Temp;Humidity;BMP_temperature;BMP_pressure;BME280_temperature;BME280_humidity;BME280_pressure;Samples;Min_cycle;Max_cycle;Signal;HPM_P1;HPM_P2
2022/05/01 00:01:58;;;;;;;;;16.00;16.00;;;;;9.93;100.00;102058.88;5795135;24;45232;-84
2022/05/01 00:05:16;;;;;;;;;17.33;15.67;;;;;9.92;100.00;102063.34;5788248;24;45374;-85
2022/05/01 00:08:45;;;;;;;;;25.67;22.00;;;;;9.90;100.00;102059.88;5788184;24;46738;-84
2022/05/01 00:11:42;;;;;;;;;15.50;14.25;;;;;9.85;100.00;102058.34;5852454;24;44874;-84
2022/05/01 00:14:45;;;;;;;;;;;;;;;;;;;;;
2022/05/01 00:18:00;;;;;;;;;14.33;12.67;;;;;9.78;100.00;102053.31;5951097;23;45494;-84
2022/05/01 00:24:17;;;;;;;;;20.67;17.33;;;;;9.70;100.00;102058.06;6008403;23;44901;-84
2022/05/01 00:26:55;;;;;;;;;28.00;28.00;;;;;9.68;100.00;102053.78;5982992;23;44823;-84
2022/05/01 00:29:40;;;;;;;;;18.00;17.00;;;;;9.66;100.00;102051.16;6000500;23;44868;-84
2022/05/01 00:39:41;;;;;;;;;;;;;;;;;;;;;
2022/05/01 00:54:07;;;;;;;;;;;;;;;;;;;;;
2022/05/01 01:04:53;;;;;;;;;;;;;;;;;;;;;
2022/05/01 01:10:52;;;;;;;;;19.67;19.67;;;;;9.19;100.00;102042.53;5874076;24;44865;-83
2022/05/01 01:13:59;;;;;;;;;;;;;;;;;;;;;
2022/05/01 01:17:46;;;;;;;;;;;;;;;;;;;;;
2022/05/01 01:20:31;;;;;;;;;19.33;18.33;;;;;9.03;100.00;102047.53;5874305;24;45487;-83
2022/05/01 01:23:54;;;;;;;;;22.00;22.00;;;;;8.96;100.00;102024.88;5890904;24;44896;-83
2022/05/01 01:26:29;;;;;;;;;18.67;18.67;;;;;8.94;100.00;102029.34;5893897;24;45142;-83
2022/05/01 01:36:34;;;;;;;;;28.67;22.00;;;;;8.84;100.00;102023.56;6010101;23;45279;-83
2022/05/01 01:53:21;;;;;;;;;31.00;30.67;;;;;8.73;100.00;102031.06;6082897;23;45486;-83
2022/05/01 01:55:52;;;;;;;;;23.00;22.33;;;;;8.75;100.00;102034.50;6068234;23;44991;-83
2022/05/01 01:58:25;;;;;;;;;27.67;25.67;;;;;8.73;100.00;102029.28;6066874;23;45276;-83
2022/05/01 02:00:51;;;;;;;;;30.33;26.67;;;;;8.73;100.00;102026.63;6065267;23;45188;-83
2022/05/01 02:07:13;;;;;;;;;;;;;;;;;;;;;
2022/05/01 02:13:15;;;;;;;;;20.67;19.00;;;;;8.62;100.00;102015.59;6066317;23;44850;-83
2022/05/01 02:15:47;;;;;;;;;28.67;25.67;;;;;8.58;100.00;102013.09;6068164;23;46798;-82
2022/05/01 02:35:51;;;;;;;;;21.67;18.00;;;;;8.42;100.00;102005.75;5978895;23;44801;-84
2022/05/01 02:43:25;;;;;;;;;;;;;;;;;;;;;
2022/05/01 02:49:26;;;;;;;;;22.67;20.33;;;;;8.36;100.00;101994.47;5920519;24;45436;-83
2022/05/01 02:52:30;;;;;;;;;29.00;24.00;;;;;8.36;100.00;101992.72;5890164;24;45485;-84
2022/05/01 02:55:35;;;;;;;;;26.67;25.67;;;;;8.33;100.00;101981.38;5895717;24;47421;-83
2022/05/01 03:12:24;;;;;;;;;;;;;;;;;;;;;
2022/05/01 03:29:50;;;;;;;;;;;;;;;;;;;;;
2022/05/01 03:36:50;;;;;;;;;23.00;20.67;;;;;8.03;100.00;101964.84;5919445;24;45394;-83
2022/05/01 03:43:31;;;;;;;;;24.67;20.00;;;;;7.96;100.00;101959.75;5916576;24;44918;-82
2022/05/01 03:46:56;;;;;;;;;26.33;26.33;;;;;7.94;100.00;101958.97;5915999;24;45483;-82
2022/05/01 04:05:02;;;;;;;;;;;;;;;;;;;;;
2022/05/01 04:25:45;;;;;;;;;37.33;26.33;;;;;7.80;100.00;101950.66;6064095;23;44781;-82
2022/05/01 04:36:23;;;;;;;;;33.33;26.33;;;;;7.84;100.00;101948.78;5954236;23;44951;-83
2022/05/01 04:39:30;;;;;;;;;30.00;25.33;;;;;7.86;100.00;101952.22;5973920;23;45468;-83
2022/05/01 04:42:12;;;;;;;;;26.67;26.67;;;;;7.89;100.00;101950.31;5977598;23;45490;-84
2022/05/01 06:19:53;;;;;;;;;31.67;30.33;;;;;10.51;100.00;101982.81;6344253;22;44806;-84
2022/05/01 06:30:15;;;;;;;;;;;;;;;;;;;;;
2022/05/01 12:19:42;;;;;;;;;24.00;20.00;;;;;17.38;69.76;101770.56;5624525;22;15271529;-85
2022/05/01 12:22:27;;;;;;;;;27.75;27.75;;;;;17.38;67.91;101779.47;6251043;22;45193;-85
2022/05/01 12:25:44;;;;;;;;;20.60;20.60;;;;;17.42;68.14;101759.44;6251180;22;44733;-85
2022/05/01 12:28:23;;;;;;;;;23.50;21.00;;;;;17.79;65.56;101761.88;6222772;22;45252;-85
2022/05/01 12:31:10;;;;;;;;;21.25;19.25;;;;;18.17;64.18;101765.97;6253974;22;44823;-86
2022/05/01 12:33:37;;;;;;;;;20.00;18.25;;;;;18.41;62.73;101765.75;6250195;22;46599;-84
2022/05/01 12:36:36;;;;;;;;;29.00;24.50;;;;;18.37;66.07;101753.53;6214608;22;44852;-86
2022/05/01 12:39:31;;;;;;;;;24.25;20.25;;;;;17.97;65.87;101751.47;6228288;22;44841;-86
2022/05/01 12:45:57;;;;;;;;;19.75;18.75;;;;;18.11;62.96;101764.63;6014057;23;45121;-85
2022/05/01 12:48:23;;;;;;;;;20.75;19.50;;;;;18.31;64.28;101749.53;5983908;23;44789;-85
2022/05/01 12:50:57;;;;;;;;;23.50;17.50;;;;;18.70;62.43;101731.88;5982691;23;45292;-85
2022/05/01 12:53:28;;;;;;;;;20.50;17.50;;;;;19.15;61.21;101733.44;5983605;23;45666;-85
2022/05/01 12:56:22;;;;;;;;;19.75;17.50;;;;;19.14;56.51;101742.50;5985487;23;47206;-86
2022/05/01 12:58:49;;;;;;;;;18.00;13.00;;;;;18.67;55.19;101756.34;6044351;23;44801;-87
2022/05/01 13:01:33;;;;;;;;;22.00;19.25;;;;;18.32;59.12;101753.06;6046992;23;45299;-85
2022/05/01 13:04:55;;;;;;;;;25.00;22.00;;;;;18.14;59.53;101748.25;6038204;23;44820;-85
2022/05/01 13:07:42;;;;;;;;;20.75;18.00;;;;;18.80;58.35;101734.63;6023455;23;47028;-85
2022/05/01 13:10:19;;;;;;;;;17.60;15.60;;;;;19.13;57.22;101733.56;6039817;23;44746;-87
2022/05/01 13:13:12;;;;;;;;;20.25;18.25;;;;;19.39;56.60;101723.22;6046084;23;44748;-86
2022/05/01 13:16:23;;;;;;;;;15.75;14.50;;;;;19.00;56.11;101744.56;6088112;23;45440;-85
2022/05/01 13:19:20;;;;;;;;;19.25;17.25;;;;;18.67;59.70;101728.59;6031849;23;47051;-85
2022/05/01 13:22:06;;;;;;;;;18.75;16.75;;;;;18.23;59.13;101741.25;6004732;23;45559;-84
2022/05/01 13:24:54;;;;;;;;;24.75;23.50;;;;;18.24;57.04;101741.13;6008501;23;45247;-85
2022/05/01 13:27:31;;;;;;;;;18.25;15.50;;;;;18.77;57.93;101736.75;6008470;23;45322;-86
2022/05/01 13:30:19;;;;;;;;;20.25;16.50;;;;;19.10;55.02;101739.22;6010812;23;45200;-84
2022/05/01 13:46:11;;;;;;;;;19.80;19.20;;;;;19.68;55.16;101709.84;6037552;23;45078;-85
2022/05/01 13:49:39;;;;;;;;;15.75;15.75;;;;;20.10;53.09;101709.63;6029554;23;45457;-85
2022/05/01 13:52:09;;;;;;;;;15.00;14.25;;;;;19.86;47.12;101728.88;5951671;23;44826;-85
2022/05/01 13:54:53;;;;;;;;;10.75;9.25;;;;;19.45;50.22;101692.16;5978428;23;45278;-85
2022/05/01 13:57:48;;;;;;;;;17.80;16.40;;;;;19.45;48.60;101708.34;5954471;23;45271;-85
2022/05/01 14:00:16;;;;;;;;;14.25;12.00;;;;;19.83;46.88;101710.31;6008160;23;45454;-86
2022/05/01 14:02:55;;;;;;;;;16.75;15.25;;;;;20.17;46.79;101693.75;6011396;23;45304;-85
2022/05/01 14:05:26;;;;;;;;;13.00;9.75;;;;;20.54;45.30;101699.28;6012050;23;45339;-86
2022/05/01 14:07:52;;;;;;;;;21.20;17.60;;;;;20.87;44.62;101697.94;6008309;23;45233;-85
2022/05/01 14:10:31;;;;;;;;;17.75;14.75;;;;;21.48;42.53;101693.91;6006021;23;45184;-86
2022/05/01 14:13:37;;;;;;;;;16.00;15.25;;;;;22.18;40.83;101681.47;6004725;23;45292;-85
2022/05/01 14:16:25;;;;;;;;;18.80;15.80;;;;;22.55;40.58;101683.16;6005435;23;45556;-86
2022/05/01 14:19:28;;;;;;;;;18.80;16.80;;;;;22.29;39.55;101700.22;6003125;23;45485;-86
2022/05/01 14:22:02;;;;;;;;;13.00;12.20;;;;;21.57;40.31;101679.47;6015476;23;45400;-85
2022/05/01 14:25:14;;;;;;;;;13.00;13.00;;;;;20.99;40.31;101677.00;6007999;23;44904;-85
2022/05/01 14:31:51;;;;;;;;;15.20;13.40;;;;;20.61;40.87;101662.63;6005958;23;45268;-85
2022/05/01 14:35:06;;;;;;;;;16.00;13.80;;;;;21.08;39.92;101673.44;6011279;23;44837;-85
2022/05/01 14:41:22;;;;;;;;;16.00;14.00;;;;;21.93;37.82;101671.41;6125229;23;44920;-85
2022/05/01 14:44:23;;;;;;;;;6.60;6.20;;;;;22.41;40.29;101640.38;6104549;23;44940;-85
2022/05/01 14:50:29;;;;;;;;;14.40;13.20;;;;;21.72;36.55;101663.59;6034871;23;45364;-85
2022/05/01 14:53:02;;;;;;;;;13.40;9.20;;;;;21.75;37.43;101657.84;6037546;23;45385;-86
2022/05/01 15:12:32;;;;;;;;;10.80;10.80;;;;;22.98;34.10;101646.19;5984527;23;45264;-84
2022/05/01 15:15:50;;;;;;;;;8.80;8.80;;;;;21.84;35.07;101643.41;5984870;23;44906;-85
2022/05/01 15:32:23;;;;;;;;;8.80;8.80;;;;;22.04;35.87;101642.22;5819042;24;44923;-85
2022/05/01 15:35:04;;;;;;;;;10.60;9.80;;;;;22.49;34.40;101649.41;5823755;24;45301;-84
2022/05/01 15:38:11;;;;;;;;;7.20;7.20;;;;;22.86;34.25;101644.72;5844555;24;44799;-86
2022/05/01 15:40:59;;;;;;;;;10.25;5.25;;;;;22.41;34.32;101635.81;5912570;23;44895;-84
2022/05/01 15:43:47;;;;;;;;;8.50;8.50;;;;;22.73;33.50;101642.47;5998748;23;45449;-85
2022/05/01 15:54:49;;;;;;;;;8.40;6.40;;;;;22.77;33.39;101628.44;6286631;22;44831;-85
2022/05/01 15:57:37;;;;;;;;;9.80;9.80;;;;;23.39;31.53;101633.66;6255606;22;44634;-86
2022/05/01 16:00:27;;;;;;;;;11.00;11.00;;;;;23.14;32.13;101629.16;6278918;22;45403;-85
2022/05/01 16:02:59;;;;;;;;;10.40;10.40;;;;;23.00;33.64;101619.78;6276157;22;44927;-86
2022/05/01 16:05:34;;;;;;;;;6.40;6.40;;;;;23.05;32.30;101631.81;6250229;22;46921;-86
2022/05/01 16:08:45;;;;;;;;;12.20;10.40;;;;;23.23;32.80;101636.31;6277745;22;44744;-87
2022/05/01 16:12:17;;;;;;;;;15.80;11.60;;;;;23.00;32.25;101631.47;6160105;23;44873;-85
2022/05/01 16:15:12;;;;;;;;;10.00;8.80;;;;;23.19;33.03;101616.81;6105562;23;44740;-86
2022/05/01 16:18:27;;;;;;;;;10.40;9.80;;;;;23.28;33.01;101617.69;6102616;23;45090;-86
2022/05/01 16:21:17;;;;;;;;;9.80;7.40;;;;;23.50;32.17;101624.38;6127467;23;44703;-85
2022/05/01 16:24:20;;;;;;;;;8.60;7.80;;;;;22.96;32.94;101616.53;6153669;23;45513;-85
2022/05/01 16:26:46;;;;;;;;;5.20;4.40;;;;;23.03;33.48;101625.72;6127617;23;44934;-86
2022/05/01 16:30:06;;;;;;;;;9.00;9.00;;;;;22.92;34.18;101622.44;6154610;23;45472;-86
2022/05/01 16:33:38;;;;;;;;;15.80;13.20;;;;;22.80;34.95;101627.25;6126517;23;45238;-86
2022/05/01 16:42:57;;;;;;;;;7.60;7.60;;;;;22.58;33.94;101602.44;6040098;23;45323;-86
2022/05/01 16:45:40;;;;;;;;;11.60;10.00;;;;;22.13;33.59;101605.31;6043368;23;44800;-84
2022/05/01 16:52:44;;;;;;;;;11.00;9.20;;;;;21.10;36.33;101609.25;5846876;24;45196;-85
2022/05/01 16:55:12;;;;;;;;;14.80;14.40;;;;;21.05;37.83;101592.66;5847201;24;46568;-85
2022/05/01 16:58:27;;;;;;;;;;;;;;;;;;;;;
2022/05/01 17:01:49;;;;;;;;;10.20;9.40;;;;;20.83;37.59;101595.72;5841037;24;44781;-85
2022/05/01 17:05:12;;;;;;;;;;;;;;;;;;;;;
2022/05/01 17:08:42;;;;;;;;;;;;;;;;;;;;;
2022/05/01 17:15:44;;;;;;;;;;;;;;;;;;;;;
2022/05/01 17:24:57;;;;;;;;;11.40;10.80;;;;;20.57;40.73;101601.78;5962295;23;45441;-85
2022/05/01 17:32:14;;;;;;;;;10.50;9.50;;;;;20.63;39.56;101609.31;5920104;24;44785;-84
2022/05/01 17:35:11;;;;;;;;;11.00;9.60;;;;;20.56;39.76;101605.50;5980788;23;45499;-85
2022/05/01 17:37:51;;;;;;;;;6.40;6.40;;;;;20.46;39.13;101597.41;5979827;23;45417;-86
2022/05/01 17:44:38;;;;;;;;;15.20;9.80;;;;;19.56;42.13;101604.94;5896905;24;44842;-84
2022/05/01 18:01:45;;;;;;;;;9.50;6.50;;;;;18.93;46.15;101614.13;6192701;23;45009;-86
2022/05/01 18:11:29;;;;;;;;;13.25;9.25;;;;;18.21;49.95;101601.50;6157678;23;45198;-85
2022/05/01 18:14:33;;;;;;;;;4.00;4.00;;;;;17.95;53.18;101594.81;6188977;23;45374;-84
2022/05/01 18:17:58;;;;;;;;;13.00;12.80;;;;;17.61;55.72;101604.81;6071776;23;44770;-85
2022/05/01 18:24:11;;;;;;;;;11.50;10.75;;;;;17.34;56.25;101611.44;6037890;23;45151;-86
2022/05/01 18:27:02;;;;;;;;;10.40;9.60;;;;;17.21;59.00;101598.19;6035210;23;45105;-83
2022/05/01 18:32:56;;;;;;;;;10.00;10.00;;;;;16.87;60.94;101601.84;6034263;23;44786;-86
2022/05/01 18:35:44;;;;;;;;;13.00;9.00;;;;;16.74;61.29;101590.41;6034246;23;45553;-85
2022/05/01 18:39:02;;;;;;;;;12.50;12.50;;;;;16.58;64.38;101596.94;6124507;23;45386;-86
2022/05/01 18:45:56;;;;;;;;;;;;;;;;;;;;;
2022/05/01 18:55:49;;;;;;;;;8.60;7.60;;;;;15.93;74.40;101611.78;5973345;23;45392;-86
2022/05/01 19:02:00;;;;;;;;;;;;;;;;;;;;;
2022/05/01 19:05:04;;;;;;;;;13.25;12.00;;;;;15.70;79.82;101611.78;6005602;23;74617;-86
2022/05/01 19:08:14;;;;;;;;;10.60;9.20;;;;;15.66;80.19;101614.72;5872193;24;45350;-85
2022/05/01 19:11:02;;;;;;;;;12.25;10.75;;;;;15.60;78.00;101615.09;5870386;24;45237;-85
2022/05/01 19:14:08;;;;;;;;;12.25;10.50;;;;;15.55;81.54;101611.91;5867801;24;45265;-85
2022/05/01 19:30:38;;;;;;;;;16.00;12.00;;;;;15.23;77.67;101614.28;6144406;23;45537;-86
2022/05/01 19:33:41;;;;;;;;;11.00;8.60;;;;;15.18;79.72;101619.09;6156507;23;45237;-85
2022/05/01 19:36:55;;;;;;;;;12.00;8.00;;;;;15.13;81.43;101614.09;6158781;23;45161;-86
2022/05/01 19:40:11;;;;;;;;;13.50;13.00;;;;;15.12;81.19;101624.91;6134016;23;45253;-84
2022/05/01 19:46:22;;;;;;;;;9.75;9.50;;;;;14.97;83.07;101642.91;6211623;22;44853;-86
2022/05/01 19:55:29;;;;;;;;;16.75;11.75;;;;;14.85;87.15;101649.16;6214327;22;45730;-85
2022/05/01 19:58:36;;;;;;;;;18.40;13.80;;;;;14.83;91.07;101645.69;6210364;22;44796;-84
2022/05/01 20:01:18;;;;;;;;;12.75;11.00;;;;;14.76;93.41;101647.13;6161553;23;44858;-83
2022/05/01 20:03:46;;;;;;;;;13.75;13.75;;;;;14.74;89.48;101654.38;6141030;23;44966;-85
2022/05/01 20:09:44;;;;;;;;;;;;;;;;;;;;;
2022/05/01 20:12:11;;;;;;;;;14.75;11.75;;;;;14.64;94.10;101649.66;6155909;23;70302;-83
2022/05/01 20:14:40;;;;;;;;;1.00;1.00;;;;;14.62;94.58;101646.25;6172797;23;44752;-84
2022/05/01 20:17:22;;;;;;;;;13.00;13.00;;;;;14.59;95.12;101643.78;6169197;23;45199;-85
2022/05/01 20:20:25;;;;;;;;;12.25;11.75;;;;;14.57;94.77;101642.19;6159011;23;44826;-85
2022/05/01 20:23:03;;;;;;;;;10.00;10.00;;;;;14.52;94.40;101645.16;6166391;22;44848;-85
2022/05/01 20:26:07;;;;;;;;;14.25;14.25;;;;;14.50;96.53;101652.44;6246286;22;45167;-85
2022/05/01 20:28:57;;;;;;;;;15.00;15.00;;;;;14.47;93.39;101647.28;6279669;22;46781;-85
2022/05/01 20:31:50;;;;;;;;;18.00;14.00;;;;;14.47;95.62;101643.75;6311718;22;44749;-85
2022/05/01 20:35:05;;;;;;;;;;;;;;;;;;;;;
2022/05/01 20:38:04;;;;;;;;;12.25;11.00;;;;;14.39;97.69;101642.44;6309893;22;68949;-85
2022/05/01 20:40:34;;;;;;;;;10.25;10.25;;;;;14.37;95.55;101641.72;6281055;22;46769;-85
2022/05/01 20:43:36;;;;;;;;;15.75;14.00;;;;;14.37;94.63;101651.53;6280053;22;45191;-85
2022/05/01 20:46:35;;;;;;;;;;;;;;;;;;;;;
2022/05/01 20:49:20;;;;;;;;;20.25;15.50;;;;;14.33;98.13;101642.00;6305731;22;69226;-85
2022/05/01 20:52:18;;;;;;;;;14.75;11.75;;;;;14.30;96.47;101644.88;6279474;22;46053;-85
2022/05/01 20:54:53;;;;;;;;;21.75;15.75;;;;;14.28;96.19;101644.16;6184836;23;45207;-86
2022/05/01 20:57:23;;;;;;;;;16.00;15.00;;;;;14.22;96.93;101632.06;6180186;23;44737;-86
2022/05/01 21:00:07;;;;;;;;;15.25;15.25;;;;;14.22;96.40;101637.41;6180377;23;45387;-84
2022/05/01 21:02:51;;;;;;;;;16.75;16.75;;;;;14.21;100.00;101633.00;6156519;23;45467;-84
2022/05/01 21:05:20;;;;;;;;;17.75;13.75;;;;;14.19;99.29;101632.25;6183823;23;44753;-85
2022/05/01 21:08:38;;;;;;;;;11.00;9.25;;;;;14.17;98.03;101627.97;6159683;23;44805;-84
2022/05/01 21:17:13;;;;;;;;;13.50;13.50;;;;;14.10;100.00;101627.53;6124364;23;44696;-85
2022/05/01 21:19:41;;;;;;;;;11.00;11.00;;;;;14.08;96.88;101624.13;6131516;23;44853;-86
2022/05/01 21:22:21;;;;;;;;;14.00;14.00;;;;;14.06;98.91;101626.88;6110078;23;44891;-85
2022/05/01 21:25:08;;;;;;;;;20.75;19.50;;;;;14.06;98.01;101621.53;6111396;23;46702;-84
2022/05/01 21:27:37;;;;;;;;;20.75;16.50;;;;;14.04;97.46;101623.47;6125317;23;44692;-83
2022/05/01 21:33:06;;;;;;;;;24.50;18.50;;;;;14.00;96.92;101621.09;6226245;22;45276;-85
2022/05/01 21:36:16;;;;;;;;;17.50;15.25;;;;;14.00;95.38;101618.44;6246483;22;45264;-85
2022/05/01 21:39:09;;;;;;;;;;;;;;;;;;;;;
2022/05/01 21:41:51;;;;;;;;;14.25;13.00;;;;;13.96;98.94;101615.09;6244979;22;45451;-85
2022/05/01 21:44:56;;;;;;;;;19.25;16.75;;;;;13.94;99.06;101610.84;6238520;22;45301;-84
2022/05/01 21:47:28;;;;;;;;;25.00;23.00;;;;;13.93;96.71;101601.97;6261276;22;46914;-85
2022/05/01 21:50:02;;;;;;;;;14.00;14.00;;;;;13.92;97.71;101599.38;6305321;22;44835;-86
2022/05/01 21:52:41;;;;;;;;;20.75;17.25;;;;;13.88;98.38;101604.94;6307769;22;45420;-85
2022/05/01 21:55:11;;;;;;;;;19.25;18.75;;;;;13.90;99.16;101604.84;6281740;22;45423;-85
2022/05/01 21:57:48;;;;;;;;;6.25;4.25;;;;;13.88;99.32;101602.28;6310970;22;45183;-85
2022/05/01 22:00:34;;;;;;;;;18.25;18.00;;;;;13.88;98.94;101604.94;6278341;22;44696;-84
2022/05/01 22:03:13;;;;;;;;;19.00;17.75;;;;;13.85;98.82;101605.13;6275837;22;44757;-85
2022/05/01 22:05:44;;;;;;;;;19.50;18.25;;;;;13.84;99.25;101602.56;6307724;22;44904;-85
2022/05/01 22:08:19;;;;;;;;;21.25;19.00;;;;;13.82;96.40;101608.00;6305577;22;45498;-85
2022/05/01 22:10:58;;;;;;;;;;;;;;;;;;;;;
2022/05/01 22:13:24;;;;;;;;;24.25;15.25;;;;;13.78;96.14;101598.50;6304538;22;68395;-85
2022/05/01 22:16:10;;;;;;;;;12.50;11.00;;;;;13.79;96.90;101602.88;6306291;22;45399;-85
2022/05/01 22:18:48;;;;;;;;;13.50;13.50;;;;;13.78;97.39;101600.28;6311766;22;46299;-85
2022/05/01 22:21:25;;;;;;;;;17.00;17.00;;;;;13.76;99.26;101596.88;6287788;22;44675;-85
2022/05/01 22:24:04;;;;;;;;;20.50;18.00;;;;;13.76;99.07;101596.88;6285779;22;44764;-86
2022/05/01 22:33:12;;;;;;;;;15.00;11.75;;;;;13.60;100.00;101587.22;6306498;22;44708;-85
2022/05/01 22:39:03;;;;;;;;;29.75;28.75;;;;;13.40;100.00;101586.81;6292293;22;44774;-84
2022/05/01 22:42:25;;;;;;;;;21.00;20.25;;;;;13.34;100.00;101604.06;6322307;22;45240;-85
2022/05/01 22:45:03;;;;;;;;;26.50;23.25;;;;;13.25;100.00;101591.34;6279903;22;45409;-85
2022/05/01 22:47:50;;;;;;;;;27.00;24.00;;;;;13.22;100.00;101589.72;6309189;22;45495;-85
2022/05/01 22:50:24;;;;;;;;;29.50;26.75;;;;;13.15;100.00;101584.81;6283623;22;45408;-85
2022/05/01 22:56:24;;;;;;;;;30.75;27.25;;;;;13.10;100.00;101591.34;6306195;22;45477;-85
2022/05/01 22:59:15;;;;;;;;;;;;;;;;;;;;;
2022/05/01 23:01:53;;;;;;;;;33.00;30.00;;;;;13.02;100.00;101596.31;6306624;22;68858;-85
2022/05/01 23:04:58;;;;;;;;;32.33;30.67;;;;;12.93;100.00;101593.34;6306742;22;46305;-84
2022/05/01 23:08:12;;;;;;;;;51.67;44.00;;;;;12.90;100.00;101596.22;6308348;22;45410;-85
2022/05/01 23:12:10;;;;;;;;;35.00;30.33;;;;;12.83;100.00;101596.59;6303656;22;45257;-85
2022/05/01 23:25:05;;;;;;;;;28.33;25.00;;;;;12.49;100.00;101594.31;6162985;23;45450;-84
2022/05/01 23:27:31;;;;;;;;;22.00;21.00;;;;;12.39;100.00;101580.69;6125042;23;45035;-85
2022/05/01 23:34:08;;;;;;;;;;;;;;;;;;;;;
2022/05/01 23:44:43;;;;;;;;;;;;;;;;;;;;;
